createdAt,value
2017-09-25T00:00:05.058Z,1010.55
2017-09-25T00:01:05.076Z,1010.57
2017-09-25T00:02:05.096Z,1010.56
2017-09-25T00:03:05.120Z,1010.58
2017-09-25T00:04:05.132Z,1010.57
2017-09-25T00:05:05.150Z,1010.55
2017-09-25T00:06:05.168Z,1010.5
2017-09-25T00:07:05.189Z,1010.5
2017-09-25T00:08:05.206Z,1010.49
2017-09-25T00:09:05.231Z,1010.52
2017-09-25T00:10:05.242Z,1010.52
2017-09-25T00:11:05.261Z,1010.52
2017-09-25T00:12:05.279Z,1010.47
2017-09-25T00:13:05.297Z,1010.53
2017-09-25T00:14:05.317Z,1010.48
2017-09-25T00:15:05.336Z,1010.5
2017-09-25T00:16:05.352Z,1010.47
2017-09-25T00:17:05.371Z,1010.49
2017-09-25T00:18:05.389Z,1010.49
2017-09-25T00:19:05.407Z,1010.48
2017-09-25T00:20:05.426Z,1010.45
2017-09-25T00:21:05.443Z,1010.45
2017-09-25T00:22:05.461Z,1010.46
2017-09-25T00:23:05.481Z,1010.48
2017-09-25T00:24:05.499Z,1010.46
2017-09-25T00:25:05.519Z,1010.52
2017-09-25T00:26:05.535Z,1010.5
2017-09-25T00:27:05.556Z,1010.48
2017-09-25T00:28:05.572Z,1010.49
2017-09-25T00:29:05.590Z,1010.52
2017-09-25T00:30:05.608Z,1010.49
2017-09-25T00:31:05.630Z,1010.5
2017-09-25T00:32:05.644Z,1010.46
2017-09-25T00:33:05.663Z,1010.47
2017-09-25T00:34:05.684Z,1010.44
2017-09-25T00:35:05.701Z,1010.48
2017-09-25T00:36:05.720Z,1010.46
2017-09-25T00:37:05.737Z,1010.44
2017-09-25T00:38:05.771Z,1010.41
2017-09-25T00:39:05.775Z,1010.42
2017-09-25T00:40:05.790Z,1010.42
2017-09-25T00:41:05.809Z,1010.41
2017-09-25T00:42:05.828Z,1010.43
2017-09-25T00:43:05.848Z,1010.38
2017-09-25T00:44:05.866Z,1010.39
2017-09-25T00:45:05.884Z,1010.39
2017-09-25T00:46:05.902Z,1010.39
2017-09-25T00:47:05.919Z,1010.34
2017-09-25T00:48:05.937Z,1010.37
2017-09-25T00:49:05.957Z,1010.34
2017-09-25T00:50:13.886Z,1010.35
2017-09-25T00:51:05.992Z,1010.33
2017-09-25T00:52:06.015Z,1010.32
2017-09-25T00:53:06.031Z,1010.33
2017-09-25T00:54:06.048Z,1010.32
2017-09-25T00:55:06.065Z,1010.32
2017-09-25T00:56:06.083Z,1010.33
2017-09-25T00:57:06.102Z,1010.34
2017-09-25T00:58:06.119Z,1010.32
2017-09-25T00:59:06.146Z,1010.33
2017-09-25T01:00:06.156Z,1010.34
2017-09-25T01:01:06.175Z,1010.36
2017-09-25T01:02:06.194Z,1010.37
2017-09-25T01:03:06.211Z,1010.36
2017-09-25T01:04:06.229Z,1010.4
2017-09-25T01:05:06.251Z,1010.43
2017-09-25T01:06:06.264Z,1010.47
2017-09-25T01:07:06.283Z,1010.44
2017-09-25T01:08:06.302Z,1010.43
2017-09-25T01:09:06.319Z,1010.43
2017-09-25T01:10:06.337Z,1010.43
2017-09-25T01:11:06.356Z,1010.43
2017-09-25T01:12:06.375Z,1010.42
2017-09-25T01:13:06.392Z,1010.47
2017-09-25T01:14:06.410Z,1010.39
2017-09-25T01:15:06.431Z,1010.45
2017-09-25T01:16:06.449Z,1010.43
2017-09-25T01:17:06.465Z,1010.39
2017-09-25T01:18:06.484Z,1010.39
2017-09-25T01:19:06.500Z,1010.39
2017-09-25T01:20:06.543Z,1010.42
2017-09-25T01:21:06.537Z,1010.39
2017-09-25T01:22:06.555Z,1010.4
2017-09-25T01:23:06.573Z,1010.4
2017-09-25T01:24:06.592Z,1010.37
2017-09-25T01:25:06.609Z,1010.41
2017-09-25T01:26:06.627Z,1010.47
2017-09-25T01:27:06.645Z,1010.4
2017-09-25T01:28:06.664Z,1010.39
2017-09-25T01:29:06.682Z,1010.35
2017-09-25T01:30:06.701Z,1010.34
2017-09-25T01:31:06.718Z,1010.36
2017-09-25T01:32:06.735Z,1010.31
2017-09-25T01:33:06.755Z,1010.33
2017-09-25T01:34:06.772Z,1010.36
2017-09-25T01:35:06.790Z,1010.28
2017-09-25T01:36:06.807Z,1010.27
2017-09-25T01:37:06.830Z,1010.26
2017-09-25T01:38:06.844Z,1010.26
2017-09-25T01:39:06.862Z,1010.29
2017-09-25T01:40:06.879Z,1010.28
2017-09-25T01:41:06.900Z,1010.26
2017-09-25T01:42:06.915Z,1010.25
2017-09-25T01:43:06.933Z,1010.2
2017-09-25T01:44:06.954Z,1010.14
2017-09-25T01:45:06.969Z,1010.16
2017-09-25T01:46:06.986Z,1010.14
2017-09-25T01:47:07.005Z,1010.18
2017-09-25T01:48:07.023Z,1010.14
2017-09-25T01:49:07.042Z,1010.11
2017-09-25T01:50:07.062Z,1010.12
2017-09-25T01:51:07.076Z,1010.13
2017-09-25T01:52:07.095Z,1010.09
2017-09-25T01:53:07.112Z,1010.06
2017-09-25T01:54:07.133Z,1010.06
2017-09-25T01:55:07.149Z,1010.05
2017-09-25T01:56:07.169Z,1010.05
2017-09-25T01:57:07.184Z,1010.01
2017-09-25T01:58:07.202Z,1010.04
2017-09-25T01:59:07.224Z,1010.12
2017-09-25T02:00:07.239Z,1010.11
2017-09-25T02:01:07.256Z,1010.1
2017-09-25T02:02:07.274Z,1010.09
2017-09-25T02:03:07.294Z,1010.07
2017-09-25T02:04:07.309Z,1010.06
2017-09-25T02:05:07.328Z,1010.03
2017-09-25T02:06:07.348Z,1010.02
2017-09-25T02:07:07.364Z,1010.08
2017-09-25T02:08:07.382Z,1010.03
2017-09-25T02:09:07.400Z,1010.06
2017-09-25T02:10:07.417Z,1010.05
2017-09-25T02:11:07.436Z,1010.02
2017-09-25T02:12:07.454Z,1010.05
2017-09-25T02:13:07.471Z,1010.02
2017-09-25T02:14:07.490Z,1009.99
2017-09-25T02:15:07.507Z,1009.97
2017-09-25T02:16:07.527Z,1009.96
2017-09-25T02:17:07.542Z,1009.94
2017-09-25T02:18:07.564Z,1009.9
2017-09-25T02:19:07.578Z,1009.9
2017-09-25T02:20:07.596Z,1009.89
2017-09-25T02:21:07.615Z,1009.87
2017-09-25T02:22:07.632Z,1009.87
2017-09-25T02:23:07.651Z,1009.81
2017-09-25T02:24:07.668Z,1009.82
2017-09-25T02:25:07.687Z,1009.81
2017-09-25T02:26:07.706Z,1009.81
2017-09-25T02:27:07.722Z,1009.81
2017-09-25T02:28:07.740Z,1009.78
2017-09-25T02:29:07.759Z,1009.79
2017-09-25T02:30:07.780Z,1009.84
2017-09-25T02:31:07.796Z,1009.78
2017-09-25T02:32:07.812Z,1009.79
2017-09-25T02:33:07.829Z,1009.76
2017-09-25T02:34:07.848Z,1009.73
2017-09-25T02:35:07.866Z,1009.76
2017-09-25T02:36:07.886Z,1009.73
2017-09-25T02:37:07.902Z,1009.74
2017-09-25T02:38:07.919Z,1009.75
2017-09-25T02:39:07.938Z,1009.77
2017-09-25T02:40:07.956Z,1009.76
2017-09-25T02:41:07.972Z,1009.75
2017-09-25T02:42:07.992Z,1009.74
2017-09-25T02:43:08.010Z,1009.75
2017-09-25T02:44:08.029Z,1009.77
2017-09-25T02:45:08.044Z,1009.78
2017-09-25T02:46:08.063Z,1009.77
2017-09-25T02:47:08.096Z,1009.77
2017-09-25T02:48:08.098Z,1009.78
2017-09-25T02:49:08.116Z,1009.75
2017-09-25T02:50:08.136Z,1009.78
2017-09-25T02:51:08.152Z,1009.76
2017-09-25T02:52:08.169Z,1009.76
2017-09-25T02:53:08.188Z,1009.77
2017-09-25T02:54:08.205Z,1009.73
2017-09-25T02:55:08.224Z,1009.67
2017-09-25T02:56:08.241Z,1009.67
2017-09-25T02:57:08.257Z,1009.69
2017-09-25T02:58:08.276Z,1009.68
2017-09-25T02:59:08.293Z,1009.65
2017-09-25T03:00:08.311Z,1009.65
2017-09-25T03:01:08.330Z,1009.62
2017-09-25T03:02:08.349Z,1009.63
2017-09-25T03:03:08.367Z,1009.61
2017-09-25T03:04:08.384Z,1009.59
2017-09-25T03:05:08.402Z,1009.61
2017-09-25T03:06:08.421Z,1009.63
2017-09-25T03:07:08.436Z,1009.63
2017-09-25T03:08:08.456Z,1009.59
2017-09-25T03:09:08.477Z,1009.61
2017-09-25T03:10:08.491Z,1009.62
2017-09-25T03:11:08.510Z,1009.61
2017-09-25T03:12:08.526Z,1009.59
2017-09-25T03:13:08.545Z,1009.6
2017-09-25T03:14:08.564Z,1009.57
2017-09-25T03:15:08.579Z,1009.57
2017-09-25T03:16:08.599Z,1009.57
2017-09-25T03:17:08.616Z,1009.55
2017-09-25T03:18:08.634Z,1009.55
2017-09-25T03:19:08.651Z,1009.52
2017-09-25T03:20:08.669Z,1009.52
2017-09-25T03:21:08.687Z,1009.52
2017-09-25T03:22:08.704Z,1009.47
2017-09-25T03:23:08.727Z,1009.49
2017-09-25T03:24:08.740Z,1009.45
2017-09-25T03:25:08.757Z,1009.45
2017-09-25T03:26:08.777Z,1009.45
2017-09-25T03:27:08.883Z,1009.45
2017-09-25T03:28:08.811Z,1009.48
2017-09-25T03:29:08.829Z,1009.45
2017-09-25T03:30:08.849Z,1009.45
2017-09-25T03:31:08.866Z,1009.44
2017-09-25T03:32:08.883Z,1009.45
2017-09-25T03:33:08.901Z,1009.47
2017-09-25T03:34:08.919Z,1009.46
2017-09-25T03:35:08.938Z,1009.46
2017-09-25T03:36:08.955Z,1009.48
2017-09-25T03:37:08.975Z,1009.51
2017-09-25T03:38:08.992Z,1009.49
2017-09-25T03:39:09.007Z,1009.49
2017-09-25T03:40:09.025Z,1009.49
2017-09-25T03:41:09.043Z,1009.51
2017-09-25T03:42:09.061Z,1009.51
2017-09-25T03:43:09.079Z,1009.5
2017-09-25T03:44:09.097Z,1009.48
2017-09-25T03:45:09.227Z,1009.45
2017-09-25T03:46:09.135Z,1009.5
2017-09-25T03:47:09.150Z,1009.48
2017-09-25T03:48:09.170Z,1009.44
2017-09-25T03:49:09.237Z,1009.47
2017-09-25T03:50:09.203Z,1009.4
2017-09-25T03:51:09.221Z,1009.43
2017-09-25T03:52:09.239Z,1009.44
2017-09-25T03:53:09.260Z,1009.39
2017-09-25T03:54:09.274Z,1009.41
2017-09-25T03:55:09.295Z,1009.43
2017-09-25T03:56:09.313Z,1009.47
2017-09-25T03:57:09.329Z,1009.44
2017-09-25T03:58:09.347Z,1009.46
2017-09-25T03:59:09.365Z,1009.44
2017-09-25T04:00:09.383Z,1009.49
2017-09-25T04:01:09.401Z,1009.47
2017-09-25T04:02:09.419Z,1009.46
2017-09-25T04:03:09.439Z,1009.46
2017-09-25T04:04:09.455Z,1009.47
2017-09-25T04:05:09.473Z,1009.49
2017-09-25T04:06:09.491Z,1009.46
2017-09-25T04:07:09.560Z,1009.45
2017-09-25T04:08:09.526Z,1009.47
2017-09-25T04:09:09.543Z,1009.49
2017-09-25T04:10:09.561Z,1009.47
2017-09-25T04:11:09.579Z,1009.43
2017-09-25T04:12:09.597Z,1009.43
2017-09-25T04:13:09.616Z,1009.43
2017-09-25T04:14:09.632Z,1009.42
2017-09-25T04:15:09.650Z,1009.43
2017-09-25T04:16:09.667Z,1009.44
2017-09-25T04:17:09.686Z,1009.42
2017-09-25T04:18:09.704Z,1009.41
2017-09-25T04:19:09.721Z,1009.43
2017-09-25T04:20:09.739Z,1009.46
2017-09-25T04:21:09.759Z,1009.44
2017-09-25T04:22:09.776Z,1009.42
2017-09-25T04:23:09.793Z,1009.43
2017-09-25T04:24:09.810Z,1009.41
2017-09-25T04:25:09.829Z,1009.42
2017-09-25T04:26:09.947Z,1009.45
2017-09-25T04:27:09.867Z,1009.44
2017-09-25T04:28:09.883Z,1009.44
2017-09-25T04:29:09.901Z,1009.45
2017-09-25T04:30:09.920Z,1009.47
2017-09-25T04:31:09.936Z,1009.45
2017-09-25T04:32:09.955Z,1009.45
2017-09-25T04:33:09.975Z,1009.47
2017-09-25T04:34:09.989Z,1009.49
2017-09-25T04:35:10.007Z,1009.52
2017-09-25T04:36:10.027Z,1009.48
2017-09-25T04:37:10.044Z,1009.49
2017-09-25T04:38:10.062Z,1009.43
2017-09-25T04:39:10.079Z,1009.45
2017-09-25T04:40:10.097Z,1009.44
2017-09-25T04:41:10.114Z,1009.43
2017-09-25T04:42:10.132Z,1009.38
2017-09-25T04:43:10.151Z,1009.36
2017-09-25T04:44:10.169Z,1009.34
2017-09-25T04:45:10.187Z,1009.35
2017-09-25T04:46:10.205Z,1009.38
2017-09-25T04:47:10.230Z,1009.38
2017-09-25T04:48:10.242Z,1009.39
2017-09-25T04:49:10.259Z,1009.36
2017-09-25T04:50:10.275Z,1009.39
2017-09-25T04:51:10.295Z,1009.39
2017-09-25T04:52:10.310Z,1009.37
2017-09-25T04:53:10.328Z,1009.38
2017-09-25T04:54:10.348Z,1009.38
2017-09-25T04:55:10.365Z,1009.35
2017-09-25T04:56:10.383Z,1009.36
2017-09-25T04:57:10.400Z,1009.34
2017-09-25T04:58:10.419Z,1009.36
2017-09-25T04:59:10.436Z,1009.41
2017-09-25T05:00:10.455Z,1009.46
2017-09-25T05:01:10.475Z,1009.49
2017-09-25T05:02:10.490Z,1009.47
2017-09-25T05:03:10.509Z,1009.51
2017-09-25T05:04:10.526Z,1009.47
2017-09-25T05:05:10.544Z,1009.52
2017-09-25T05:06:10.562Z,1009.49
2017-09-25T05:07:10.578Z,1009.48
2017-09-25T05:08:10.599Z,1009.49
2017-09-25T05:09:10.616Z,1009.47
2017-09-25T05:10:10.633Z,1009.5
2017-09-25T05:11:10.650Z,1009.5
2017-09-25T05:12:10.668Z,1009.46
2017-09-25T05:13:10.687Z,1009.5
2017-09-25T05:14:10.712Z,1009.43
2017-09-25T05:15:10.723Z,1009.46
2017-09-25T05:16:10.740Z,1009.48
2017-09-25T05:17:10.759Z,1009.49
2017-09-25T05:18:10.776Z,1009.47
2017-09-25T05:19:10.793Z,1009.44
2017-09-25T05:20:10.811Z,1009.41
2017-09-25T05:21:10.830Z,1009.45
2017-09-25T05:22:10.849Z,1009.45
2017-09-25T05:23:10.865Z,1009.43
2017-09-25T05:24:10.883Z,1009.46
2017-09-25T05:25:10.901Z,1009.5
2017-09-25T05:26:10.919Z,1009.49
2017-09-25T05:27:10.937Z,1009.5
2017-09-25T05:28:10.955Z,1009.49
2017-09-25T05:29:10.972Z,1009.47
2017-09-25T05:30:10.990Z,1009.52
2017-09-25T05:31:11.008Z,1009.46
2017-09-25T05:32:11.027Z,1009.5
2017-09-25T05:33:11.046Z,1009.52
2017-09-25T05:34:11.065Z,1009.52
2017-09-25T05:35:11.081Z,1009.49
2017-09-25T05:36:11.098Z,1009.5
2017-09-25T05:37:11.117Z,1009.5
2017-09-25T05:38:11.135Z,1009.51
2017-09-25T05:39:11.152Z,1009.48
2017-09-25T05:40:11.171Z,1009.47
2017-09-25T05:41:11.190Z,1009.51
2017-09-25T05:42:11.206Z,1009.48
2017-09-25T05:43:11.224Z,1009.47
2017-09-25T05:44:11.242Z,1009.48
2017-09-25T05:45:11.261Z,1009.46
2017-09-25T05:46:11.279Z,1009.43
2017-09-25T05:47:11.296Z,1009.45
2017-09-25T05:48:11.314Z,1009.43
2017-09-25T05:49:11.334Z,1009.38
2017-09-25T05:50:11.351Z,1009.36
2017-09-25T05:51:11.370Z,1009.38
2017-09-25T05:52:11.386Z,1009.4
2017-09-25T05:53:11.404Z,1009.41
2017-09-25T05:54:11.421Z,1009.44
2017-09-25T05:55:11.441Z,1009.43
2017-09-25T05:56:11.458Z,1009.41
2017-09-25T05:57:11.476Z,1009.44
2017-09-25T05:58:11.494Z,1009.48
2017-09-25T05:59:11.516Z,1009.45
2017-09-25T06:00:11.530Z,1009.48
2017-09-25T06:01:11.549Z,1009.49
2017-09-25T06:02:11.564Z,1009.48
2017-09-25T06:03:11.583Z,1009.51
2017-09-25T06:04:11.601Z,1009.54
2017-09-25T06:05:11.620Z,1009.53
2017-09-25T06:06:11.638Z,1009.54
2017-09-25T06:07:11.656Z,1009.55
2017-09-25T06:08:11.673Z,1009.56
2017-09-25T06:09:11.691Z,1009.5
2017-09-25T06:10:11.709Z,1009.52
2017-09-25T06:11:11.727Z,1009.52
2017-09-25T06:12:11.748Z,1009.54
2017-09-25T06:13:11.764Z,1009.54
2017-09-25T06:14:11.784Z,1009.57
2017-09-25T06:15:11.802Z,1009.58
2017-09-25T06:16:11.833Z,1009.56
2017-09-25T06:17:11.835Z,1009.55
2017-09-25T06:18:11.853Z,1009.56
2017-09-25T06:19:11.874Z,1009.58
2017-09-25T06:20:11.890Z,1009.55
2017-09-25T06:21:11.908Z,1009.55
2017-09-25T06:22:11.926Z,1009.55
2017-09-25T06:23:11.944Z,1009.52
2017-09-25T06:24:11.961Z,1009.51
2017-09-25T06:25:11.980Z,1009.5
2017-09-25T06:26:11.998Z,1009.49
2017-09-25T06:27:12.016Z,1009.51
2017-09-25T06:28:12.034Z,1009.52
2017-09-25T06:29:12.051Z,1009.53
2017-09-25T06:30:12.070Z,1009.52
2017-09-25T06:31:12.088Z,1009.5
2017-09-25T06:32:12.109Z,1009.49
2017-09-25T06:33:12.124Z,1009.49
2017-09-25T06:34:12.142Z,1009.49
2017-09-25T06:35:12.161Z,1009.49
2017-09-25T06:36:12.178Z,1009.47
2017-09-25T06:37:12.197Z,1009.47
2017-09-25T06:38:12.215Z,1009.45
2017-09-25T06:39:12.257Z,1009.46
2017-09-25T06:40:12.251Z,1009.48
2017-09-25T06:41:12.269Z,1009.5
2017-09-25T06:42:12.287Z,1009.48
2017-09-25T06:43:12.493Z,1009.49
2017-09-25T06:44:12.402Z,1009.5
2017-09-25T06:45:12.411Z,1009.51
2017-09-25T06:46:12.419Z,1009.51
2017-09-25T06:47:12.383Z,1009.51
2017-09-25T06:48:12.396Z,1009.45
2017-09-25T06:49:12.415Z,1009.52
2017-09-25T06:50:12.432Z,1009.52
2017-09-25T06:51:12.452Z,1009.56
2017-09-25T06:52:12.470Z,1009.54
2017-09-25T06:53:12.486Z,1009.52
2017-09-25T06:54:12.506Z,1009.54
2017-09-25T06:55:12.523Z,1009.56
2017-09-25T06:56:12.543Z,1009.55
2017-09-25T06:57:12.558Z,1009.56
2017-09-25T06:58:12.577Z,1009.57
2017-09-25T06:59:12.596Z,1009.57
2017-09-25T07:00:12.614Z,1009.56
2017-09-25T07:01:12.633Z,1009.56
2017-09-25T07:02:12.649Z,1009.57
2017-09-25T07:03:12.668Z,1009.59
2017-09-25T07:04:12.687Z,1009.59
2017-09-25T07:05:12.705Z,1009.6
2017-09-25T07:06:12.722Z,1009.59
2017-09-25T07:07:12.741Z,1009.6
2017-09-25T07:08:12.761Z,1009.58
2017-09-25T07:09:12.779Z,1009.62
2017-09-25T07:10:12.800Z,1009.6
2017-09-25T07:11:12.815Z,1009.57
2017-09-25T07:12:12.837Z,1009.6
2017-09-25T07:13:12.851Z,1009.57
2017-09-25T07:14:12.879Z,1009.57
2017-09-25T07:15:12.887Z,1009.59
2017-09-25T07:16:12.906Z,1009.63
2017-09-25T07:17:13.049Z,1009.6
2017-09-25T07:18:13.056Z,1009.64
2017-09-25T07:19:12.961Z,1009.62
2017-09-25T07:20:12.978Z,1009.61
2017-09-25T07:21:12.999Z,1009.59
2017-09-25T07:22:13.015Z,1009.62
2017-09-25T07:23:13.147Z,1009.6
2017-09-25T07:24:13.161Z,1009.57
2017-09-25T07:25:13.071Z,1009.59
2017-09-25T07:26:13.088Z,1009.6
2017-09-25T07:27:13.108Z,1009.58
2017-09-25T07:28:13.125Z,1009.58
2017-09-25T07:29:13.142Z,1009.57
2017-09-25T07:30:13.161Z,1009.55
2017-09-25T07:31:13.180Z,1009.56
2017-09-25T07:32:13.198Z,1009.55
2017-09-25T07:33:13.216Z,1009.53
2017-09-25T07:34:13.236Z,1009.54
2017-09-25T07:35:13.255Z,1009.53
2017-09-25T07:36:13.272Z,1009.52
2017-09-25T07:37:13.291Z,1009.54
2017-09-25T07:38:13.307Z,1009.55
2017-09-25T07:39:13.326Z,1009.52
2017-09-25T07:40:13.354Z,1009.52
2017-09-25T07:41:13.364Z,1009.53
2017-09-25T07:42:13.382Z,1009.53
2017-09-25T07:43:13.400Z,1009.5
2017-09-25T07:44:13.418Z,1009.53
2017-09-25T07:45:13.436Z,1009.5
2017-09-25T07:46:13.454Z,1009.48
2017-09-25T07:47:13.807Z,1009.48
2017-09-25T07:48:13.490Z,1009.49
2017-09-25T07:49:13.511Z,1009.5
2017-09-25T07:50:13.528Z,1009.45
2017-09-25T07:51:13.547Z,1009.46
2017-09-25T07:52:13.564Z,1009.48
2017-09-25T07:53:13.584Z,1009.49
2017-09-25T07:54:13.601Z,1009.5
2017-09-25T07:55:13.621Z,1009.48
2017-09-25T07:56:13.638Z,1009.5
2017-09-25T07:57:13.657Z,1009.5
2017-09-25T07:58:13.678Z,1009.48
2017-09-25T07:59:13.693Z,1009.52
2017-09-25T08:00:13.714Z,1009.51
2017-09-25T08:01:13.730Z,1009.49
2017-09-25T08:02:13.748Z,1009.48
2017-09-25T08:03:13.768Z,1009.47
2017-09-25T08:04:13.786Z,1009.49
2017-09-25T08:05:13.804Z,1009.52
2017-09-25T08:06:13.824Z,1009.52
2017-09-25T08:07:13.841Z,1009.52
2017-09-25T08:08:13.861Z,1009.53
2017-09-25T08:09:13.990Z,1009.52
2017-09-25T08:10:13.982Z,1009.52
2017-09-25T08:11:13.916Z,1009.52
2017-09-25T08:12:13.936Z,1009.51
2017-09-25T08:13:13.953Z,1009.5
2017-09-25T08:14:13.972Z,1009.49
2017-09-25T08:15:13.995Z,1009.51
2017-09-25T08:16:14.009Z,1009.49
2017-09-25T08:17:14.026Z,1009.51
2017-09-25T08:18:14.045Z,1009.51
2017-09-25T08:19:14.064Z,1009.52
2017-09-25T08:20:14.083Z,1009.53
2017-09-25T08:21:14.104Z,1009.49
2017-09-25T08:22:14.120Z,1009.54
2017-09-25T08:23:14.144Z,1009.56
2017-09-25T08:24:14.158Z,1009.51
2017-09-25T08:25:14.176Z,1009.52
2017-09-25T08:26:14.195Z,1009.55
2017-09-25T08:27:14.214Z,1009.54
2017-09-25T08:28:14.231Z,1009.57
2017-09-25T08:29:14.251Z,1009.53
2017-09-25T08:30:14.271Z,1009.54
2017-09-25T08:31:14.287Z,1009.58
2017-09-25T08:32:14.307Z,1009.56
2017-09-25T08:33:14.325Z,1009.55
2017-09-25T08:34:14.344Z,1009.57
2017-09-25T08:35:14.361Z,1009.59
2017-09-25T08:36:14.381Z,1009.59
2017-09-25T08:37:14.400Z,1009.56
2017-09-25T08:38:14.425Z,1009.55
2017-09-25T08:39:14.437Z,1009.54
2017-09-25T08:40:14.455Z,1009.57
2017-09-25T08:41:14.480Z,1009.54
2017-09-25T08:42:14.493Z,1009.54
2017-09-25T08:43:14.514Z,1009.55
2017-09-25T08:44:14.532Z,1009.55
2017-09-25T08:45:14.550Z,1009.51
2017-09-25T08:46:14.605Z,1009.5
2017-09-25T08:47:14.587Z,1009.51
2017-09-25T08:48:14.608Z,1009.52
2017-09-25T08:49:14.627Z,1009.49
2017-09-25T08:50:14.644Z,1009.53
2017-09-25T08:51:14.666Z,1009.49
2017-09-25T08:52:14.682Z,1009.5
2017-09-25T08:53:14.701Z,1009.51
2017-09-25T08:54:14.719Z,1009.52
2017-09-25T08:55:14.739Z,1009.56
2017-09-25T08:56:14.760Z,1009.55
2017-09-25T08:57:14.776Z,1009.53
2017-09-25T08:58:14.796Z,1009.55
2017-09-25T08:59:14.814Z,1009.57
2017-09-25T09:00:14.833Z,1009.53
2017-09-25T09:01:14.853Z,1009.55
2017-09-25T09:02:14.870Z,1009.52
2017-09-25T09:03:14.889Z,1009.56
2017-09-25T09:04:14.909Z,1009.53
2017-09-25T09:05:14.929Z,1009.56
2017-09-25T09:06:14.946Z,1009.54
2017-09-25T09:07:14.965Z,1009.58
2017-09-25T09:08:14.986Z,1009.54
2017-09-25T09:09:15.003Z,1009.59
2017-09-25T09:10:15.022Z,1009.61
2017-09-25T09:11:15.040Z,1009.62
2017-09-25T09:12:15.060Z,1009.6
2017-09-25T09:13:15.080Z,1009.66
2017-09-25T09:14:15.098Z,1009.63
2017-09-25T09:15:15.116Z,1009.67
2017-09-25T09:16:15.134Z,1009.76
2017-09-25T09:17:15.154Z,1009.79
2017-09-25T09:18:15.174Z,1009.86
2017-09-25T09:19:15.191Z,1009.88
2017-09-25T09:20:15.211Z,1009.87
2017-09-25T09:21:15.230Z,1009.85
2017-09-25T09:22:15.248Z,1009.81
2017-09-25T09:23:15.300Z,1009.78
2017-09-25T09:24:15.286Z,1009.75
2017-09-25T09:25:15.309Z,1009.75
2017-09-25T09:26:15.325Z,1009.73
2017-09-25T09:27:15.345Z,1009.72
2017-09-25T09:28:15.362Z,1009.75
2017-09-25T09:29:15.381Z,1009.74
2017-09-25T09:30:15.400Z,1009.75
2017-09-25T09:31:15.425Z,1009.67
2017-09-25T09:32:15.437Z,1009.67
2017-09-25T09:33:15.458Z,1009.59
2017-09-25T09:34:15.481Z,1009.64
2017-09-25T09:35:15.494Z,1009.6
2017-09-25T09:36:15.515Z,1009.63
2017-09-25T09:37:15.532Z,1009.63
2017-09-25T09:38:15.551Z,1009.61
2017-09-25T09:39:15.572Z,1009.64
2017-09-25T09:40:15.590Z,1009.6
2017-09-25T09:41:15.607Z,1009.61
2017-09-25T09:42:15.627Z,1009.59
2017-09-25T09:43:15.647Z,1009.64
2017-09-25T09:44:15.667Z,1009.6
2017-09-25T09:45:15.698Z,1009.6
2017-09-25T09:46:15.704Z,1009.59
2017-09-25T09:47:15.722Z,1009.57
2017-09-25T09:48:15.740Z,1009.58
2017-09-25T09:49:15.759Z,1009.58
2017-09-25T09:50:15.778Z,1009.51
2017-09-25T09:51:15.799Z,1009.51
2017-09-25T09:52:15.816Z,1009.52
2017-09-25T09:53:15.836Z,1009.48
2017-09-25T09:54:15.855Z,1009.48
2017-09-25T09:55:15.880Z,1009.43
2017-09-25T09:56:15.893Z,1009.44
2017-09-25T09:57:15.913Z,1009.43
2017-09-25T09:58:15.933Z,1009.44
2017-09-25T09:59:15.948Z,1009.41
2017-09-25T10:00:15.970Z,1009.41
2017-09-25T10:01:15.988Z,1009.47
2017-09-25T10:02:16.007Z,1009.44
2017-09-25T10:03:16.025Z,1009.45
2017-09-25T10:04:16.044Z,1009.47
2017-09-25T10:05:16.064Z,1009.5
2017-09-25T10:06:16.082Z,1009.45
2017-09-25T10:07:16.100Z,1009.42
2017-09-25T10:08:16.120Z,1009.46
2017-09-25T10:09:16.139Z,1009.42
2017-09-25T10:10:16.157Z,1009.45
2017-09-25T10:11:16.176Z,1009.42
2017-09-25T10:12:16.203Z,1009.44
2017-09-25T10:13:16.214Z,1009.43
2017-09-25T10:14:16.232Z,1009.48
2017-09-25T10:15:16.251Z,1009.48
2017-09-25T10:16:16.271Z,1009.44
2017-09-25T10:17:16.294Z,1009.48
2017-09-25T10:18:16.312Z,1009.46
2017-09-25T10:19:16.328Z,1009.47
2017-09-25T10:20:16.347Z,1009.47
2017-09-25T10:21:16.366Z,1009.49
2017-09-25T10:22:16.386Z,1009.49
2017-09-25T10:23:16.408Z,1009.49
2017-09-25T10:24:16.423Z,1009.48
2017-09-25T10:25:16.440Z,1009.53
2017-09-25T10:26:16.461Z,1009.54
2017-09-25T10:27:16.479Z,1009.52
2017-09-25T10:28:16.499Z,1009.53
2017-09-25T10:29:16.517Z,1009.57
2017-09-25T10:30:16.548Z,1009.55
2017-09-25T10:31:16.557Z,1009.57
2017-09-25T10:32:16.575Z,1009.58
2017-09-25T10:33:16.595Z,1009.6
2017-09-25T10:34:16.614Z,1009.63
2017-09-25T10:35:16.631Z,1009.63
2017-09-25T10:36:16.650Z,1009.59
2017-09-25T10:37:16.670Z,1009.64
2017-09-25T10:38:16.688Z,1009.61
2017-09-25T10:39:16.705Z,1009.58
2017-09-25T10:40:16.728Z,1009.6
2017-09-25T10:41:16.744Z,1009.58
2017-09-25T10:42:16.769Z,1009.6
2017-09-25T10:43:16.783Z,1009.59
2017-09-25T10:44:16.800Z,1009.58
2017-09-25T10:45:16.821Z,1009.54
2017-09-25T10:46:16.839Z,1009.55
2017-09-25T10:47:16.857Z,1009.56
2017-09-25T10:48:16.877Z,1009.52
2017-09-25T10:49:16.897Z,1009.56
2017-09-25T10:50:16.914Z,1009.53
2017-09-25T10:51:16.939Z,1009.51
2017-09-25T10:52:16.952Z,1009.53
2017-09-25T10:53:16.971Z,1009.49
2017-09-25T10:54:16.990Z,1009.48
2017-09-25T10:55:17.008Z,1009.47
2017-09-25T10:56:17.029Z,1009.49
2017-09-25T10:57:17.047Z,1009.49
2017-09-25T10:58:17.069Z,1009.52
2017-09-25T10:59:17.084Z,1009.52
2017-09-25T11:00:17.107Z,1009.47
2017-09-25T11:01:17.122Z,1009.48
2017-09-25T11:02:17.146Z,1009.51
2017-09-25T11:03:17.161Z,1009.49
2017-09-25T11:04:17.180Z,1009.49
2017-09-25T11:05:17.198Z,1009.48
2017-09-25T11:06:17.218Z,1009.46
2017-09-25T11:07:17.237Z,1009.49
2017-09-25T11:08:17.260Z,1009.45
2017-09-25T11:09:17.274Z,1009.43
2017-09-25T11:10:17.294Z,1009.44
2017-09-25T11:11:17.313Z,1009.45
2017-09-25T11:12:17.331Z,1009.41
2017-09-25T11:13:17.351Z,1009.44
2017-09-25T11:14:17.370Z,1009.39
2017-09-25T11:15:17.392Z,1009.35
2017-09-25T11:16:17.410Z,1009.35
2017-09-25T11:17:17.427Z,1009.37
2017-09-25T11:18:17.448Z,1009.37
2017-09-25T11:19:17.539Z,1009.35
2017-09-25T11:20:17.485Z,1009.36
2017-09-25T11:21:17.503Z,1009.32
2017-09-25T11:22:17.524Z,1009.34
2017-09-25T11:23:17.542Z,1009.34
2017-09-25T11:24:17.560Z,1009.34
2017-09-25T11:25:17.580Z,1009.33
2017-09-25T11:26:17.600Z,1009.34
2017-09-25T11:27:17.620Z,1009.31
2017-09-25T11:28:17.640Z,1009.3
2017-09-25T11:29:17.658Z,1009.33
2017-09-25T11:30:17.677Z,1009.34
2017-09-25T11:31:17.697Z,1009.37
2017-09-25T11:32:17.717Z,1009.34
2017-09-25T11:33:17.735Z,1009.29
2017-09-25T11:34:17.754Z,1009.27
2017-09-25T11:35:17.775Z,1009.3
2017-09-25T11:36:17.791Z,1009.3
2017-09-25T11:37:17.813Z,1009.28
2017-09-25T11:38:17.831Z,1009.3
2017-09-25T11:39:17.851Z,1009.28
2017-09-25T11:40:17.870Z,1009.27
2017-09-25T11:41:17.889Z,1009.31
2017-09-25T11:42:17.910Z,1009.29
2017-09-25T11:43:17.929Z,1009.32
2017-09-25T11:44:17.948Z,1009.33
2017-09-25T11:45:17.968Z,1009.31
2017-09-25T11:46:17.987Z,1009.29
2017-09-25T11:47:18.007Z,1009.33
2017-09-25T11:48:18.027Z,1009.32
2017-09-25T11:49:18.045Z,1009.33
2017-09-25T11:50:18.065Z,1009.35
2017-09-25T11:51:18.088Z,1009.34
2017-09-25T11:52:18.105Z,1009.33
2017-09-25T11:53:18.125Z,1009.33
2017-09-25T11:54:18.145Z,1009.32
2017-09-25T11:55:18.169Z,1009.34
2017-09-25T11:56:18.187Z,1009.36
2017-09-25T11:57:18.203Z,1009.39
2017-09-25T11:58:18.226Z,1009.35
2017-09-25T11:59:18.243Z,1009.42
2017-09-25T12:00:18.263Z,1009.42
2017-09-25T12:01:18.283Z,1009.43
2017-09-25T12:02:18.303Z,1009.4
2017-09-25T12:03:18.324Z,1009.38
2017-09-25T12:04:18.341Z,1009.38
2017-09-25T12:05:18.361Z,1009.35
2017-09-25T12:06:18.381Z,1009.39
2017-09-25T12:07:18.402Z,1009.38